sensor_id;sensor_type;location;lat;lon;timestamp;pressure;altitude;pressure_sealevel;temperature;humidity
3968;BME280;9221;42.646;23.380;2022-12-04T00:00:10;95374.94;;;6.82;94.27
3968;BME280;9221;42.646;23.380;2022-12-04T00:02:36;95473.69;;;7.20;94.41
3968;BME280;9221;42.646;23.380;2022-12-04T00:05:03;95424.41;;;6.99;93.98
3968;BME280;9221;42.646;23.380;2022-12-04T00:07:28;95436.47;;;7.02;94.68
3968;BME280;9221;42.646;23.380;2022-12-04T00:09:54;95434.69;;;7.02;95.07
3968;BME280;9221;42.646;23.380;2022-12-04T00:12:19;95409.94;;;6.81;95.01
3968;BME280;9221;42.646;23.380;2022-12-04T00:14:44;95394.25;;;6.68;94.76
3968;BME280;9221;42.646;23.380;2022-12-04T00:17:10;95445.00;;;6.80;95.15
3968;BME280;9221;42.646;23.380;2022-12-04T00:19:35;95411.03;;;6.65;95.72
3968;BME280;9221;42.646;23.380;2022-12-04T00:22:01;95405.38;;;6.71;95.38
3968;BME280;9221;42.646;23.380;2022-12-04T00:24:26;95465.53;;;6.86;95.41
3968;BME280;9221;42.646;23.380;2022-12-04T00:26:52;95456.53;;;6.77;95.45
3968;BME280;9221;42.646;23.380;2022-12-04T00:29:17;95421.28;;;6.68;94.75
3968;BME280;9221;42.646;23.380;2022-12-04T00:31:43;95448.75;;;7.01;94.96
3968;BME280;9221;42.646;23.380;2022-12-04T00:34:09;95401.59;;;6.75;95.13
3968;BME280;9221;42.646;23.380;2022-12-04T00:36:34;95398.44;;;6.57;94.97
3968;BME280;9221;42.646;23.380;2022-12-04T00:39:01;95483.47;;;6.92;94.84
3968;BME280;9221;42.646;23.380;2022-12-04T00:41:28;95454.00;;;7.01;95.23
3968;BME280;9221;42.646;23.380;2022-12-04T00:43:54;95451.06;;;6.93;94.60
3968;BME280;9221;42.646;23.380;2022-12-04T00:46:20;95450.84;;;6.83;94.98
3968;BME280;9221;42.646;23.380;2022-12-04T00:48:46;95445.59;;;6.83;95.51
3968;BME280;9221;42.646;23.380;2022-12-04T00:51:15;95451.38;;;7.01;94.83
3968;BME280;9221;42.646;23.380;2022-12-04T00:53:41;95449.28;;;6.81;94.92
3968;BME280;9221;42.646;23.380;2022-12-04T00:56:08;95401.19;;;6.69;95.38
3968;BME280;9221;42.646;23.380;2022-12-04T00:58:34;95455.47;;;7.05;94.64
3968;BME280;9221;42.646;23.380;2022-12-04T01:01:06;95507.69;;;6.83;94.93
3968;BME280;9221;42.646;23.380;2022-12-04T01:03:32;95445.31;;;6.62;95.60
3968;BME280;9221;42.646;23.380;2022-12-04T01:05:57;95452.34;;;6.74;95.85
3968;BME280;9221;42.646;23.380;2022-12-04T01:08:23;95399.28;;;6.58;95.35
3968;BME280;9221;42.646;23.380;2022-12-04T01:10:49;95405.38;;;6.71;95.29
3968;BME280;9221;42.646;23.380;2022-12-04T01:13:14;95415.00;;;6.45;93.85
3968;BME280;9221;42.646;23.380;2022-12-04T01:15:40;95526.78;;;6.59;95.49
3968;BME280;9221;42.646;23.380;2022-12-04T01:18:07;95451.16;;;6.53;96.31
3968;BME280;9221;42.646;23.380;2022-12-04T01:20:33;95398.31;;;6.07;96.21
3968;BME280;9221;42.646;23.380;2022-12-04T01:22:58;95437.97;;;6.41;96.81
3968;BME280;9221;42.646;23.380;2022-12-04T01:25:24;95383.16;;;6.13;96.04
3968;BME280;9221;42.646;23.380;2022-12-04T01:27:49;95442.66;;;6.49;96.22
3968;BME280;9221;42.646;23.380;2022-12-04T01:30:15;95451.91;;;6.55;96.75
3968;BME280;9221;42.646;23.380;2022-12-04T01:32:40;95425.06;;;6.51;96.10
3968;BME280;9221;42.646;23.380;2022-12-04T01:35:06;95387.88;;;6.33;95.59
3968;BME280;9221;42.646;23.380;2022-12-04T01:37:31;95437.31;;;6.76;95.27
3968;BME280;9221;42.646;23.380;2022-12-04T01:39:57;95499.75;;;6.97;94.74
3968;BME280;9221;42.646;23.380;2022-12-04T01:42:22;95436.38;;;7.03;94.49
3968;BME280;9221;42.646;23.380;2022-12-04T01:47:56;95449.41;;;6.92;93.52
3968;BME280;9221;42.646;23.380;2022-12-04T01:50:22;95318.09;;;6.06;93.20
3968;BME280;9221;42.646;23.380;2022-12-04T01:52:48;95438.91;;;6.92;94.61
3968;BME280;9221;42.646;23.380;2022-12-04T01:55:14;95429.91;;;6.70;93.75
3968;BME280;9221;42.646;23.380;2022-12-04T01:57:39;95471.63;;;6.73;94.71
3968;BME280;9221;42.646;23.380;2022-12-04T02:00:12;95476.53;;;6.91;94.39
3968;BME280;9221;42.646;23.380;2022-12-04T02:02:40;95426.72;;;6.91;93.90
3968;BME280;9221;42.646;23.380;2022-12-04T02:05:11;95471.19;;;7.05;94.01
3968;BME280;9221;42.646;23.380;2022-12-04T02:07:37;95408.31;;;6.80;93.79
3968;BME280;9221;42.646;23.380;2022-12-04T02:10:04;95422.97;;;6.69;94.07
3968;BME280;9221;42.646;23.380;2022-12-04T02:18:13;95432.75;;;6.67;95.74
3968;BME280;9221;42.646;23.380;2022-12-04T02:20:47;95414.88;;;6.72;94.74
3968;BME280;9221;42.646;23.380;2022-12-04T02:23:36;95384.41;;;6.71;94.54
3968;BME280;9221;42.646;23.380;2022-12-04T02:26:50;95464.69;;;6.98;93.57
3968;BME280;9221;42.646;23.380;2022-12-04T02:31:37;95428.19;;;6.95;92.85
3968;BME280;9221;42.646;23.380;2022-12-04T02:34:13;95410.97;;;7.04;92.68
3968;BME280;9221;42.646;23.380;2022-12-04T02:36:49;95417.91;;;7.05;92.54
3968;BME280;9221;42.646;23.380;2022-12-04T02:40:02;95465.72;;;7.08;92.27
3968;BME280;9221;42.646;23.380;2022-12-04T02:42:29;95430.00;;;6.69;93.41
3968;BME280;9221;42.646;23.380;2022-12-04T02:45:03;95407.47;;;6.40;94.61
3968;BME280;9221;42.646;23.380;2022-12-04T02:47:30;95413.56;;;6.54;94.94
3968;BME280;9221;42.646;23.380;2022-12-04T02:50:02;95438.50;;;6.59;94.47
3968;BME280;9221;42.646;23.380;2022-12-04T02:52:33;95360.34;;;6.28;93.95
3968;BME280;9221;42.646;23.380;2022-12-04T02:55:07;95411.34;;;6.73;94.05
3968;BME280;9221;42.646;23.380;2022-12-04T02:57:39;95419.84;;;6.77;94.07
3968;BME280;9221;42.646;23.380;2022-12-04T03:00:06;95459.34;;;6.61;94.09
3968;BME280;9221;42.646;23.380;2022-12-04T03:03:07;95440.69;;;6.53;94.68
3968;BME280;9221;42.646;23.380;2022-12-04T03:05:32;95390.06;;;6.39;94.87
3968;BME280;9221;42.646;23.380;2022-12-04T03:08:04;95443.94;;;6.69;94.21
3968;BME280;9221;42.646;23.380;2022-12-04T03:10:38;95377.94;;;6.38;93.89
3968;BME280;9221;42.646;23.380;2022-12-04T03:15:39;95357.69;;;6.40;93.36
3968;BME280;9221;42.646;23.380;2022-12-04T03:20:48;95380.31;;;6.54;92.29
3968;BME280;9221;42.646;23.380;2022-12-04T03:23:18;95458.19;;;6.65;93.09
3968;BME280;9221;42.646;23.380;2022-12-04T03:25:53;95349.00;;;6.27;93.12
3968;BME280;9221;42.646;23.380;2022-12-04T03:31:44;95498.47;;;6.77;92.65
3968;BME280;9221;42.646;23.380;2022-12-04T03:34:18;95453.38;;;6.72;92.34
3968;BME280;9221;42.646;23.380;2022-12-04T03:36:55;95407.88;;;6.60;92.42
3968;BME280;9221;42.646;23.380;2022-12-04T03:39:45;95383.03;;;6.27;93.00
3968;BME280;9221;42.646;23.380;2022-12-04T03:42:22;95347.00;;;6.31;92.32
3968;BME280;9221;42.646;23.380;2022-12-04T03:44:59;95400.75;;;6.62;92.46
3968;BME280;9221;42.646;23.380;2022-12-04T03:47:30;95448.56;;;6.66;91.90
3968;BME280;9221;42.646;23.380;2022-12-04T03:50:14;95405.88;;;6.76;91.72
3968;BME280;9221;42.646;23.380;2022-12-04T03:52:51;95464.38;;;6.90;91.30
3968;BME280;9221;42.646;23.380;2022-12-04T03:55:38;95380.81;;;6.72;91.84
3968;BME280;9221;42.646;23.380;2022-12-04T03:58:09;95364.06;;;6.62;91.42
3968;BME280;9221;42.646;23.380;2022-12-04T04:00:39;95359.88;;;6.59;91.08
3968;BME280;9221;42.646;23.380;2022-12-04T04:03:13;95392.25;;;6.84;90.98
3968;BME280;9221;42.646;23.380;2022-12-04T04:05:44;95370.56;;;6.43;91.38
3968;BME280;9221;42.646;23.380;2022-12-04T04:08:14;95460.81;;;6.65;92.29
3968;BME280;9221;42.646;23.380;2022-12-04T04:11:04;95371.72;;;6.14;92.64
3968;BME280;9221;42.646;23.380;2022-12-04T04:13:43;95350.06;;;6.12;93.13
3968;BME280;9221;42.646;23.380;2022-12-04T04:16:28;95407.38;;;6.55;92.33
3968;BME280;9221;42.646;23.380;2022-12-04T04:19:15;95414.28;;;6.43;92.57
3968;BME280;9221;42.646;23.380;2022-12-04T04:22:03;95453.41;;;6.59;92.16
3968;BME280;9221;42.646;23.380;2022-12-04T04:24:55;95498.03;;;6.70;92.32
3968;BME280;9221;42.646;23.380;2022-12-04T04:27:22;95410.47;;;6.86;91.40
3968;BME280;9221;42.646;23.380;2022-12-04T04:29:48;95473.31;;;6.74;91.35
3968;BME280;9221;42.646;23.380;2022-12-04T04:32:22;95493.22;;;6.77;91.36
3968;BME280;9221;42.646;23.380;2022-12-04T04:38:07;95388.81;;;6.58;91.22
3968;BME280;9221;42.646;23.380;2022-12-04T04:40:55;95423.19;;;6.66;91.48
3968;BME280;9221;42.646;23.380;2022-12-04T04:43:39;95373.50;;;6.26;91.81
3968;BME280;9221;42.646;23.380;2022-12-04T04:46:17;95286.97;;;5.76;92.09
3968;BME280;9221;42.646;23.380;2022-12-04T04:48:49;95414.38;;;6.29;92.83
3968;BME280;9221;42.646;23.380;2022-12-04T04:51:16;95418.16;;;6.37;93.32
3968;BME280;9221;42.646;23.380;2022-12-04T04:53:47;95425.16;;;6.24;93.63
3968;BME280;9221;42.646;23.380;2022-12-04T04:56:15;95358.38;;;5.91;93.24
3968;BME280;9221;42.646;23.380;2022-12-04T04:58:41;95419.00;;;6.25;93.99
3968;BME280;9221;42.646;23.380;2022-12-04T05:01:18;95385.56;;;6.03;93.92
3968;BME280;9221;42.646;23.380;2022-12-04T05:03:45;95429.78;;;6.46;93.79
3968;BME280;9221;42.646;23.380;2022-12-04T05:06:10;95456.00;;;6.59;92.89
3968;BME280;9221;42.646;23.380;2022-12-04T05:08:36;95380.22;;;6.04;92.64
3968;BME280;9221;42.646;23.380;2022-12-04T05:11:02;95441.00;;;6.35;93.03
3968;BME280;9221;42.646;23.380;2022-12-04T05:13:29;95377.91;;;6.13;92.52
3968;BME280;9221;42.646;23.380;2022-12-04T05:16:04;95408.94;;;6.32;92.73
3968;BME280;9221;42.646;23.380;2022-12-04T05:18:32;95421.47;;;6.01;92.77
3968;BME280;9221;42.646;23.380;2022-12-04T05:20:57;95429.88;;;6.19;94.05
3968;BME280;9221;42.646;23.380;2022-12-04T05:23:23;95433.31;;;5.79;93.85
3968;BME280;9221;42.646;23.380;2022-12-04T05:25:49;95445.13;;;5.99;94.19
3968;BME280;9221;42.646;23.380;2022-12-04T05:28:15;95425.88;;;6.00;94.05
3968;BME280;9221;42.646;23.380;2022-12-04T05:30:40;95352.69;;;5.71;93.93
3968;BME280;9221;42.646;23.380;2022-12-04T05:33:05;95456.06;;;6.19;93.73
3968;BME280;9221;42.646;23.380;2022-12-04T05:35:31;95459.66;;;6.43;93.16
3968;BME280;9221;42.646;23.380;2022-12-04T05:37:56;95396.06;;;5.88;93.60
3968;BME280;9221;42.646;23.380;2022-12-04T05:40:22;95432.09;;;6.25;93.57
3968;BME280;9221;42.646;23.380;2022-12-04T05:42:47;95372.53;;;6.01;93.13
3968;BME280;9221;42.646;23.380;2022-12-04T05:45:12;95360.06;;;5.92;93.25
3968;BME280;9221;42.646;23.380;2022-12-04T05:47:39;95406.41;;;6.17;92.49
3968;BME280;9221;42.646;23.380;2022-12-04T05:50:06;95422.00;;;6.19;92.38
3968;BME280;9221;42.646;23.380;2022-12-04T05:52:32;95452.94;;;6.39;92.71
3968;BME280;9221;42.646;23.380;2022-12-04T05:54:57;95491.19;;;6.29;92.23
3968;BME280;9221;42.646;23.380;2022-12-04T05:57:22;95446.94;;;6.12;92.56
3968;BME280;9221;42.646;23.380;2022-12-04T05:59:49;95410.66;;;6.05;92.90
3968;BME280;9221;42.646;23.380;2022-12-04T06:02:14;95399.38;;;6.18;92.43
3968;BME280;9221;42.646;23.380;2022-12-04T06:04:40;95418.97;;;6.12;92.28
3968;BME280;9221;42.646;23.380;2022-12-04T06:07:05;95467.78;;;6.13;93.42
3968;BME280;9221;42.646;23.380;2022-12-04T06:09:31;95422.84;;;5.79;93.96
3968;BME280;9221;42.646;23.380;2022-12-04T06:11:57;95435.31;;;6.16;94.50
3968;BME280;9221;42.646;23.380;2022-12-04T06:14:22;95447.38;;;6.31;93.55
3968;BME280;9221;42.646;23.380;2022-12-04T06:16:48;95465.81;;;6.30;93.66
3968;BME280;9221;42.646;23.380;2022-12-04T06:19:16;95450.84;;;6.44;93.56
3968;BME280;9221;42.646;23.380;2022-12-04T06:21:44;95471.16;;;6.15;93.67
3968;BME280;9221;42.646;23.380;2022-12-04T06:24:15;95571.59;;;6.41;94.09
3968;BME280;9221;42.646;23.380;2022-12-04T06:26:42;95475.38;;;6.43;93.50
3968;BME280;9221;42.646;23.380;2022-12-04T06:29:08;95504.72;;;6.36;93.97
3968;BME280;9221;42.646;23.380;2022-12-04T06:31:33;95422.28;;;6.01;94.47
3968;BME280;9221;42.646;23.380;2022-12-04T06:34:00;95412.06;;;6.24;94.27
3968;BME280;9221;42.646;23.380;2022-12-04T06:36:26;95405.34;;;6.07;93.73
3968;BME280;9221;42.646;23.380;2022-12-04T06:38:54;95438.25;;;6.24;94.32
3968;BME280;9221;42.646;23.380;2022-12-04T06:41:20;95522.34;;;6.47;94.66
3968;BME280;9221;42.646;23.380;2022-12-04T06:43:45;95415.63;;;6.23;93.91
3968;BME280;9221;42.646;23.380;2022-12-04T06:46:18;95425.16;;;6.37;94.36
3968;BME280;9221;42.646;23.380;2022-12-04T06:48:44;95457.16;;;6.55;93.96
3968;BME280;9221;42.646;23.380;2022-12-04T06:51:42;95492.19;;;6.80;93.75
3968;BME280;9221;42.646;23.380;2022-12-04T06:54:08;95445.81;;;6.54;93.57
3968;BME280;9221;42.646;23.380;2022-12-04T06:56:34;95475.09;;;6.87;92.88
3968;BME280;9221;42.646;23.380;2022-12-04T06:59:01;95490.28;;;6.82;92.55
3968;BME280;9221;42.646;23.380;2022-12-04T07:01:28;95529.41;;;6.98;92.18
3968;BME280;9221;42.646;23.380;2022-12-04T07:03:55;95577.13;;;6.90;92.41
3968;BME280;9221;42.646;23.380;2022-12-04T07:06:23;95479.38;;;7.01;91.53
3968;BME280;9221;42.646;23.380;2022-12-04T07:08:51;95436.41;;;6.65;91.88
3968;BME280;9221;42.646;23.380;2022-12-04T07:11:18;95393.00;;;6.48;91.89
3968;BME280;9221;42.646;23.380;2022-12-04T07:13:44;95468.03;;;7.13;91.95
3968;BME280;9221;42.646;23.380;2022-12-04T07:16:12;95466.09;;;7.65;92.12
3968;BME280;9221;42.646;23.380;2022-12-04T07:18:38;95467.94;;;7.52;89.16
3968;BME280;9221;42.646;23.380;2022-12-04T07:21:09;95475.66;;;7.66;88.73
3968;BME280;9221;42.646;23.380;2022-12-04T07:23:35;95463.94;;;7.59;88.94
3968;BME280;9221;42.646;23.380;2022-12-04T07:26:05;95484.66;;;7.51;89.01
3968;BME280;9221;42.646;23.380;2022-12-04T07:28:31;95519.19;;;7.44;88.86
3968;BME280;9221;42.646;23.380;2022-12-04T07:30:56;95469.78;;;7.38;89.36
3968;BME280;9221;42.646;23.380;2022-12-04T07:33:22;95421.66;;;7.14;89.00
3968;BME280;9221;42.646;23.380;2022-12-04T07:35:56;95357.53;;;6.81;89.18
3968;BME280;9221;42.646;23.380;2022-12-04T07:38:21;95475.75;;;7.40;88.99
3968;BME280;9221;42.646;23.380;2022-12-04T07:40:46;95482.28;;;7.22;90.46
3968;BME280;9221;42.646;23.380;2022-12-04T07:43:12;95481.44;;;7.21;90.27
3968;BME280;9221;42.646;23.380;2022-12-04T07:45:37;95474.13;;;7.01;90.86
3968;BME280;9221;42.646;23.380;2022-12-04T07:48:03;95490.28;;;7.07;91.16
3968;BME280;9221;42.646;23.380;2022-12-04T07:50:29;95507.91;;;7.18;90.60
3968;BME280;9221;42.646;23.380;2022-12-04T07:52:54;95520.19;;;7.18;90.54
3968;BME280;9221;42.646;23.380;2022-12-04T07:55:19;95416.16;;;7.29;89.85
3968;BME280;9221;42.646;23.380;2022-12-04T07:57:45;95496.81;;;7.89;87.52
3968;BME280;9221;42.646;23.380;2022-12-04T08:00:11;95424.38;;;7.73;86.28
3968;BME280;9221;42.646;23.380;2022-12-04T08:02:36;95426.06;;;7.74;85.37
3968;BME280;9221;42.646;23.380;2022-12-04T08:05:02;95491.31;;;7.92;85.87
3968;BME280;9221;42.646;23.380;2022-12-04T08:07:27;95472.00;;;7.93;85.99
3968;BME280;9221;42.646;23.380;2022-12-04T08:09:52;95485.06;;;7.82;85.46
3968;BME280;9221;42.646;23.380;2022-12-04T08:12:18;95446.34;;;7.72;86.11
3968;BME280;9221;42.646;23.380;2022-12-04T08:14:43;95383.47;;;7.47;84.91
3968;BME280;9221;42.646;23.380;2022-12-04T08:17:09;95537.06;;;8.13;84.37
3968;BME280;9221;42.646;23.380;2022-12-04T08:19:34;95421.94;;;7.59;84.22
3968;BME280;9221;42.646;23.380;2022-12-04T08:22:00;95457.81;;;7.71;84.52
3968;BME280;9221;42.646;23.380;2022-12-04T08:24:25;95456.75;;;7.74;84.68
3968;BME280;9221;42.646;23.380;2022-12-04T08:26:50;95533.13;;;7.95;84.91
3968;BME280;9221;42.646;23.380;2022-12-04T08:29:16;95467.97;;;8.00;83.99
3968;BME280;9221;42.646;23.380;2022-12-04T08:31:41;95493.22;;;8.14;82.73
3968;BME280;9221;42.646;23.380;2022-12-04T08:34:07;95448.78;;;8.11;83.09
3968;BME280;9221;42.646;23.380;2022-12-04T08:36:33;95464.16;;;8.40;82.69
3968;BME280;9221;42.646;23.380;2022-12-04T08:39:18;95468.22;;;8.68;81.89
3968;BME280;9221;42.646;23.380;2022-12-04T08:41:43;95496.41;;;8.77;82.13
3968;BME280;9221;42.646;23.380;2022-12-04T08:44:10;95454.25;;;8.79;82.17
3968;BME280;9221;42.646;23.380;2022-12-04T08:46:35;95420.19;;;9.00;82.18
3968;BME280;9221;42.646;23.380;2022-12-04T08:49:02;95469.19;;;9.46;79.58
3968;BME280;9221;42.646;23.380;2022-12-04T08:51:29;95467.53;;;9.00;79.25
3968;BME280;9221;42.646;23.380;2022-12-04T08:53:57;95472.75;;;8.77;80.58
3968;BME280;9221;42.646;23.380;2022-12-04T08:56:24;95470.81;;;8.57;79.88
3968;BME280;9221;42.646;23.380;2022-12-04T08:58:50;95450.09;;;8.41;79.93
3968;BME280;9221;42.646;23.380;2022-12-04T09:01:16;95426.38;;;7.94;80.91
3968;BME280;9221;42.646;23.380;2022-12-04T09:03:42;95452.88;;;8.15;81.14
3968;BME280;9221;42.646;23.380;2022-12-04T09:06:09;95427.47;;;7.91;81.65
3968;BME280;9221;42.646;23.380;2022-12-04T09:08:36;95440.50;;;8.28;81.35
3968;BME280;9221;42.646;23.380;2022-12-04T09:11:07;95454.59;;;8.39;81.51
3968;BME280;9221;42.646;23.380;2022-12-04T09:13:33;95428.81;;;7.97;81.37
3968;BME280;9221;42.646;23.380;2022-12-04T09:16:02;95481.31;;;8.57;80.53
3968;BME280;9221;42.646;23.380;2022-12-04T09:18:29;95467.84;;;8.61;80.27
3968;BME280;9221;42.646;23.380;2022-12-04T09:20:56;95440.63;;;8.38;80.07
3968;BME280;9221;42.646;23.380;2022-12-04T09:23:22;95482.75;;;8.50;80.65
3968;BME280;9221;42.646;23.380;2022-12-04T09:25:47;95391.41;;;8.40;80.24
3968;BME280;9221;42.646;23.380;2022-12-04T09:28:12;95434.16;;;8.89;79.84
3968;BME280;9221;42.646;23.380;2022-12-04T09:30:38;95446.00;;;8.84;79.42
3968;BME280;9221;42.646;23.380;2022-12-04T09:33:03;95360.88;;;8.51;79.90
3968;BME280;9221;42.646;23.380;2022-12-04T09:35:29;95480.69;;;8.89;79.05
3968;BME280;9221;42.646;23.380;2022-12-04T09:37:54;95431.78;;;8.75;79.81
3968;BME280;9221;42.646;23.380;2022-12-04T09:40:25;95454.72;;;8.37;80.60
3968;BME280;9221;42.646;23.380;2022-12-04T09:45:41;95462.97;;;8.68;81.19
3968;BME280;9221;42.646;23.380;2022-12-04T09:48:10;95425.56;;;8.40;81.42
3968;BME280;9221;42.646;23.380;2022-12-04T09:50:40;95402.03;;;8.27;82.31
3968;BME280;9221;42.646;23.380;2022-12-04T09:53:27;95445.22;;;8.48;82.40
3968;BME280;9221;42.646;23.380;2022-12-04T09:55:59;95460.28;;;8.21;82.94
3968;BME280;9221;42.646;23.380;2022-12-04T09:58:44;95420.94;;;7.97;83.57
3968;BME280;9221;42.646;23.380;2022-12-04T10:01:19;95339.94;;;7.79;83.85
3968;BME280;9221;42.646;23.380;2022-12-04T10:03:45;95398.19;;;8.20;84.42
3968;BME280;9221;42.646;23.380;2022-12-04T10:06:21;95351.00;;;8.19;83.33
3968;BME280;9221;42.646;23.380;2022-12-04T10:09:00;95378.00;;;8.21;83.89
3968;BME280;9221;42.646;23.380;2022-12-04T10:11:45;95377.25;;;8.19;83.70
3968;BME280;9221;42.646;23.380;2022-12-04T10:19:54;95431.25;;;8.23;84.24
3968;BME280;9221;42.646;23.380;2022-12-04T10:22:29;95355.53;;;8.05;84.37
3968;BME280;9221;42.646;23.380;2022-12-04T10:25:17;95333.78;;;8.14;83.60
3968;BME280;9221;42.646;23.380;2022-12-04T10:30:49;95374.50;;;8.56;82.72
3968;BME280;9221;42.646;23.380;2022-12-04T10:33:22;95415.00;;;8.64;82.39
3968;BME280;9221;42.646;23.380;2022-12-04T10:35:51;95371.63;;;8.70;82.00
3968;BME280;9221;42.646;23.380;2022-12-04T10:38:29;95369.47;;;8.53;82.48
3968;BME280;9221;42.646;23.380;2022-12-04T10:41:11;95315.53;;;8.13;83.05
3968;BME280;9221;42.646;23.380;2022-12-04T10:43:46;95319.47;;;8.19;82.05
3968;BME280;9221;42.646;23.380;2022-12-04T10:46:15;95298.44;;;8.19;81.89
3968;BME280;9221;42.646;23.380;2022-12-04T10:48:45;95359.66;;;8.43;81.70
3968;BME280;9221;42.646;23.380;2022-12-04T10:51:17;95241.66;;;7.59;81.82
3968;BME280;9221;42.646;23.380;2022-12-04T10:53:44;95348.59;;;8.04;82.74
3968;BME280;9221;42.646;23.380;2022-12-04T10:56:19;95286.03;;;7.62;83.58
3968;BME280;9221;42.646;23.380;2022-12-04T11:01:21;95327.59;;;7.69;83.27
3968;BME280;9221;42.646;23.380;2022-12-04T11:03:55;95350.66;;;7.76;84.10
3968;BME280;9221;42.646;23.380;2022-12-04T11:06:35;95312.09;;;7.66;84.11
3968;BME280;9221;42.646;23.380;2022-12-04T11:09:02;95348.34;;;8.07;83.27
3968;BME280;9221;42.646;23.380;2022-12-04T11:11:30;95343.09;;;8.07;82.55
3968;BME280;9221;42.646;23.380;2022-12-04T11:14:15;95299.25;;;7.96;82.15
3968;BME280;9221;42.646;23.380;2022-12-04T11:16:44;95289.53;;;7.74;82.63
3968;BME280;9221;42.646;23.380;2022-12-04T11:19:31;95322.22;;;7.70;82.98
3968;BME280;9221;42.646;23.380;2022-12-04T11:22:02;95208.84;;;7.07;82.90
3968;BME280;9221;42.646;23.380;2022-12-04T11:24:32;95295.03;;;7.71;82.91
3968;BME280;9221;42.646;23.380;2022-12-04T11:26:58;95383.31;;;7.96;83.00
3968;BME280;9221;42.646;23.380;2022-12-04T11:29:44;95339.66;;;7.71;84.26
3968;BME280;9221;42.646;23.380;2022-12-04T11:32:31;95418.97;;;7.63;85.14
3968;BME280;9221;42.646;23.380;2022-12-04T11:35:00;95314.41;;;7.22;85.49
3968;BME280;9221;42.646;23.380;2022-12-04T11:37:32;95356.75;;;7.53;86.46
3968;BME280;9221;42.646;23.380;2022-12-04T11:39:58;95295.31;;;7.20;85.96
3968;BME280;9221;42.646;23.380;2022-12-04T11:42:27;95330.47;;;7.41;86.23
3968;BME280;9221;42.646;23.380;2022-12-04T11:45:00;95374.97;;;7.43;86.08
3968;BME280;9221;42.646;23.380;2022-12-04T11:47:31;95365.03;;;7.35;86.26
3968;BME280;9221;42.646;23.380;2022-12-04T11:55:03;95325.09;;;7.19;86.31
3968;BME280;9221;42.646;23.380;2022-12-04T11:57:49;95393.69;;;7.38;86.60
3968;BME280;9221;42.646;23.380;2022-12-04T12:00:19;95348.78;;;7.30;86.81
3968;BME280;9221;42.646;23.380;2022-12-04T12:03:11;95428.91;;;7.47;86.55
3968;BME280;9221;42.646;23.380;2022-12-04T12:05:47;95394.69;;;7.49;86.25
3968;BME280;9221;42.646;23.380;2022-12-04T12:08:52;95339.44;;;7.50;86.28
3968;BME280;9221;42.646;23.380;2022-12-04T12:17:14;95372.84;;;7.48;86.86
3968;BME280;9221;42.646;23.380;2022-12-04T12:20:23;95364.19;;;7.59;85.92
3968;BME280;9221;42.646;23.380;2022-12-04T12:23:22;95315.50;;;7.06;86.72
3968;BME280;9221;42.646;23.380;2022-12-04T12:26:03;95381.94;;;7.31;87.01
3968;BME280;9221;42.646;23.380;2022-12-04T12:36:55;95355.38;;;7.60;86.40
3968;BME280;9221;42.646;23.380;2022-12-04T12:39:24;95366.75;;;7.48;86.84
3968;BME280;9221;42.646;23.380;2022-12-04T12:41:55;95466.97;;;7.16;87.78
3968;BME280;9221;42.646;23.380;2022-12-04T12:44:33;95286.56;;;6.84;87.52
3968;BME280;9221;42.646;23.380;2022-12-04T12:47:08;95343.97;;;7.24;87.52
3968;BME280;9221;42.646;23.380;2022-12-04T12:49:48;95356.00;;;7.02;87.17
3968;BME280;9221;42.646;23.380;2022-12-04T12:54:58;95350.44;;;7.31;88.33
3968;BME280;9221;42.646;23.380;2022-12-04T12:57:36;95351.47;;;7.41;87.85
3968;BME280;9221;42.646;23.380;2022-12-04T13:02:39;95351.00;;;7.48;87.71
3968;BME280;9221;42.646;23.380;2022-12-04T13:05:10;95306.63;;;7.44;87.21
3968;BME280;9221;42.646;23.380;2022-12-04T13:10:26;95337.72;;;7.62;86.79
3968;BME280;9221;42.646;23.380;2022-12-04T13:13:03;95337.59;;;7.63;86.12
3968;BME280;9221;42.646;23.380;2022-12-04T13:15:38;95387.03;;;7.70;85.79
3968;BME280;9221;42.646;23.380;2022-12-04T13:18:07;95327.84;;;7.66;86.07
3968;BME280;9221;42.646;23.380;2022-12-04T13:20:49;95327.59;;;7.69;85.46
3968;BME280;9221;42.646;23.380;2022-12-04T13:29:31;95331.63;;;7.97;84.83
3968;BME280;9221;42.646;23.380;2022-12-04T13:32:07;95334.97;;;7.99;84.44
3968;BME280;9221;42.646;23.380;2022-12-04T13:37:55;95341.22;;;7.74;85.42
3968;BME280;9221;42.646;23.380;2022-12-04T13:40:32;95339.91;;;7.68;85.27
3968;BME280;9221;42.646;23.380;2022-12-04T13:43:32;95330.09;;;7.70;85.96
3968;BME280;9221;42.646;23.380;2022-12-04T13:46:01;95329.34;;;7.57;85.64
3968;BME280;9221;42.646;23.380;2022-12-04T13:48:35;95332.16;;;7.78;85.66
3968;BME280;9221;42.646;23.380;2022-12-04T13:51:20;95388.41;;;7.87;85.82
3968;BME280;9221;42.646;23.380;2022-12-04T13:53:47;95364.75;;;7.75;85.41
3968;BME280;9221;42.646;23.380;2022-12-04T13:56:29;95310.19;;;7.43;85.44
3968;BME280;9221;42.646;23.380;2022-12-04T14:01:30;95385.28;;;7.33;86.77
3968;BME280;9221;42.646;23.380;2022-12-04T14:04:00;95359.78;;;7.59;86.75
3968;BME280;9221;42.646;23.380;2022-12-04T14:06:37;95336.63;;;7.29;86.29
3968;BME280;9221;42.646;23.380;2022-12-04T14:09:18;95329.06;;;7.49;85.89
3968;BME280;9221;42.646;23.380;2022-12-04T14:11:47;95360.91;;;7.68;85.10
3968;BME280;9221;42.646;23.380;2022-12-04T14:14:25;95361.78;;;7.56;85.41
3968;BME280;9221;42.646;23.380;2022-12-04T14:16:52;95324.56;;;7.51;85.25
3968;BME280;9221;42.646;23.380;2022-12-04T14:19:27;95374.72;;;7.70;84.88
3968;BME280;9221;42.646;23.380;2022-12-04T14:21:54;95336.44;;;7.43;85.66
3968;BME280;9221;42.646;23.380;2022-12-04T14:24:35;95389.66;;;7.45;86.29
3968;BME280;9221;42.646;23.380;2022-12-04T14:27:30;95343.47;;;7.43;87.28
3968;BME280;9221;42.646;23.380;2022-12-04T14:29:57;95351.47;;;7.41;87.17
3968;BME280;9221;42.646;23.380;2022-12-04T14:32:29;95363.13;;;7.13;88.10
3968;BME280;9221;42.646;23.380;2022-12-04T14:34:56;95336.47;;;7.06;88.29
3968;BME280;9221;42.646;23.380;2022-12-04T14:37:32;95328.69;;;6.81;88.87
3968;BME280;9221;42.646;23.380;2022-12-04T14:39:59;95354.41;;;7.13;88.73
3968;BME280;9221;42.646;23.380;2022-12-04T14:42:35;95346.59;;;7.24;87.76
3968;BME280;9221;42.646;23.380;2022-12-04T14:45:04;95300.13;;;6.89;87.94
3968;BME280;9221;42.646;23.380;2022-12-04T14:48:12;95376.50;;;7.21;88.19
3968;BME280;9221;42.646;23.380;2022-12-04T14:54:11;95358.16;;;6.97;89.81
3968;BME280;9221;42.646;23.380;2022-12-04T14:59:43;95239.63;;;6.18;90.29
3968;BME280;9221;42.646;23.380;2022-12-04T15:02:17;95363.69;;;7.05;89.68
3968;BME280;9221;42.646;23.380;2022-12-04T15:04:43;95372.72;;;7.01;89.32